Flugplatz Hirzenhain (EDFI)

Hier findest Du alle Informationen zum Flugplatz Hirzenhain (EDFI).

Informationen für Piloten zum Flugplatz Hirzenhain

Hier findest Du alle relevanten Informationen, die Du als Pilot benötigst, um Hirzenhain anzufliegen.

Flugplatz: Hirzenhain ICAO-Code: EDFI
Frequenz Turm: 118,325 Mhz GAFOR Gebiet: 39
Frequenz Ground: 118,325 Mhz Mogas: nein
Platzrunde: S 2800 ft Landegebühr: -
Platzhöhe: 1.706 ft Sunrise: 03:11 Uhr UTC
Pisten: 11/29 - 650 m x 30 m, GRAS Sunset: 19:46 Uhr UTC

Mitglieder, die in Hirzenhain fliegen

Flugwetter am Flugplatz Hirzenhain

Die METAR Information stammen aus EDGS (23.65 km entfernt).

METAR Code:
2024/06/18 10:20
EDGS 181020Z 13010KT 9999 SCT024TCU 20/13 Q1015

Flugschulen am Flugplatz Hirzenhain

Am Flugplatz Hirzenhain gibt es leider keine Flugschule.

Benachbarte Flugplätze und Flugschulen

Es gibt 17 weitere Flugplätze in einem Umkreis von 50 km um den Flugplatz Hirzenhain.

Jetzt anmelden

Passwort vergessen

Umfrage Archiv

Wie häufig haltet Ihr die Halbkreisflugregel ein?

Eher häufig!
36 %
Immer!
30.7 %
Hin und wieder!
16.7 %
Nie!
9.5 %
Eher selten!
7.2 %
Stimmen: 264 | Diskussion
Anzeige: Roland Aircraft
Statistik Alle Mitglieder

Aktuell sind 67 Besucher online, davon 2 Mitglieder und 65 Gäste.


Mitglieder online:
Steffen_E  Maxi 

Anzeige: EasyVFR